sensor_id;sensor_type;location;lat;lon;timestamp;pressure;altitude;pressure_sealevel;temperature;humidity
54248;BME280;40161;39.768;2.722;2022-12-29T00:02:10;101946.31;;;7.68;93.93
54248;BME280;40161;39.768;2.722;2022-12-29T00:04:36;101935.34;;;7.50;93.56
54248;BME280;40161;39.768;2.722;2022-12-29T00:07:02;101937.13;;;7.64;93.82
54248;BME280;40161;39.768;2.722;2022-12-29T00:09:30;101933.97;;;7.79;92.17
54248;BME280;40161;39.768;2.722;2022-12-29T00:11:56;101940.13;;;7.45;93.45
54248;BME280;40161;39.768;2.722;2022-12-29T00:14:22;101919.16;;;7.31;95.98
54248;BME280;40161;39.768;2.722;2022-12-29T00:17:06;101911.38;;;7.56;93.20
54248;BME280;40161;39.768;2.722;2022-12-29T00:19:31;101900.06;;;7.31;93.18
54248;BME280;40161;39.768;2.722;2022-12-29T00:22:16;101916.31;;;7.36;93.83
54248;BME280;40161;39.768;2.722;2022-12-29T00:25:01;101909.56;;;7.34;95.84
54248;BME280;40161;39.768;2.722;2022-12-29T00:27:27;101898.59;;;7.25;95.86
54248;BME280;40161;39.768;2.722;2022-12-29T00:30:13;101901.28;;;7.17;95.08
54248;BME280;40161;39.768;2.722;2022-12-29T00:32:57;101900.66;;;7.20;95.81
54248;BME280;40161;39.768;2.722;2022-12-29T00:35:51;101902.84;;;7.40;95.36
54248;BME280;40161;39.768;2.722;2022-12-29T00:38:18;101830.00;;;7.27;93.12
54248;BME280;40161;39.768;2.722;2022-12-29T00:41:02;101862.03;;;7.52;92.06
54248;BME280;40161;39.768;2.722;2022-12-29T00:43:45;101888.72;;;7.47;91.08
54248;BME280;40161;39.768;2.722;2022-12-29T00:46:29;101876.50;;;7.04;92.49
54248;BME280;40161;39.768;2.722;2022-12-29T00:48:56;101896.19;;;6.93;96.37
54248;BME280;40161;39.768;2.722;2022-12-29T00:51:40;101885.13;;;6.98;96.47
54248;BME280;40161;39.768;2.722;2022-12-29T00:54:05;101835.63;;;6.82;95.75
54248;BME280;40161;39.768;2.722;2022-12-29T00:56:31;101892.25;;;7.47;94.62
54248;BME280;40161;39.768;2.722;2022-12-29T00:59:06;101891.13;;;7.57;92.17
54248;BME280;40161;39.768;2.722;2022-12-29T01:01:33;101896.75;;;7.12;92.79
54248;BME280;40161;39.768;2.722;2022-12-29T01:03:59;101878.88;;;7.37;92.65
54248;BME280;40161;39.768;2.722;2022-12-29T01:06:24;101872.72;;;7.23;91.43
54248;BME280;40161;39.768;2.722;2022-12-29T01:08:51;101892.56;;;7.06;93.20
54248;BME280;40161;39.768;2.722;2022-12-29T01:11:37;101881.38;;;6.85;95.57
54248;BME280;40161;39.768;2.722;2022-12-29T01:14:03;101880.28;;;6.95;95.07
54248;BME280;40161;39.768;2.722;2022-12-29T01:16:29;101885.34;;;6.79;96.37
54248;BME280;40161;39.768;2.722;2022-12-29T01:18:54;101884.66;;;6.96;95.47
54248;BME280;40161;39.768;2.722;2022-12-29T01:21:20;101874.66;;;6.91;94.80
54248;BME280;40161;39.768;2.722;2022-12-29T01:23:46;101869.34;;;6.86;95.54
54248;BME280;40161;39.768;2.722;2022-12-29T01:26:16;101857.25;;;7.09;95.38
54248;BME280;40161;39.768;2.722;2022-12-29T01:28:42;101875.47;;;7.23;93.07
54248;BME280;40161;39.768;2.722;2022-12-29T01:31:09;101878.16;;;6.83;94.50
54248;BME280;40161;39.768;2.722;2022-12-29T01:33:35;101864.66;;;7.09;94.69
54248;BME280;40161;39.768;2.722;2022-12-29T01:36:01;101861.81;;;7.23;92.90
54248;BME280;40161;39.768;2.722;2022-12-29T01:38:27;101871.97;;;7.00;92.85
54248;BME280;40161;39.768;2.722;2022-12-29T01:40:52;101868.66;;;6.80;94.67
54248;BME280;40161;39.768;2.722;2022-12-29T01:43:18;101872.63;;;7.05;95.17
54248;BME280;40161;39.768;2.722;2022-12-29T01:45:50;101862.44;;;7.28;92.63
54248;BME280;40161;39.768;2.722;2022-12-29T01:48:17;101823.47;;;6.65;92.88
54248;BME280;40161;39.768;2.722;2022-12-29T01:50:52;101873.19;;;6.85;95.88
54248;BME280;40161;39.768;2.722;2022-12-29T01:53:22;101888.81;;;6.71;94.94
54248;BME280;40161;39.768;2.722;2022-12-29T01:55:57;101886.09;;;6.71;96.38
54248;BME280;40161;39.768;2.722;2022-12-29T01:58:28;101885.53;;;7.13;95.78
54248;BME280;40161;39.768;2.722;2022-12-29T02:00:54;101870.19;;;7.26;92.56
54248;BME280;40161;39.768;2.722;2022-12-29T02:03:21;101886.78;;;7.07;93.63
54248;BME280;40161;39.768;2.722;2022-12-29T02:06:21;101898.63;;;6.72;95.47
54248;BME280;40161;39.768;2.722;2022-12-29T02:08:50;101882.81;;;6.82;94.78
54248;BME280;40161;39.768;2.722;2022-12-29T02:11:18;101894.41;;;7.19;92.88
54248;BME280;40161;39.768;2.722;2022-12-29T02:13:44;101908.78;;;7.11;90.47
54248;BME280;40161;39.768;2.722;2022-12-29T02:19:21;101903.97;;;7.08;91.56
54248;BME280;40161;39.768;2.722;2022-12-29T02:24:55;101915.28;;;6.70;94.48
54248;BME280;40161;39.768;2.722;2022-12-29T02:38:08;101901.53;;;6.75;95.54
54248;BME280;40161;39.768;2.722;2022-12-29T02:40:43;101910.53;;;6.76;95.48
54248;BME280;40161;39.768;2.722;2022-12-29T02:46:09;101900.22;;;7.35;90.76
54248;BME280;40161;39.768;2.722;2022-12-29T02:48:43;101908.44;;;7.04;91.49
54248;BME280;40161;39.768;2.722;2022-12-29T02:51:26;101902.16;;;6.72;92.69
54248;BME280;40161;39.768;2.722;2022-12-29T02:53:53;101903.66;;;6.56;94.88
54248;BME280;40161;39.768;2.722;2022-12-29T02:56:38;101888.69;;;6.76;94.29
54248;BME280;40161;39.768;2.722;2022-12-29T02:59:03;101880.00;;;6.74;94.12
54248;BME280;40161;39.768;2.722;2022-12-29T03:04:26;101886.59;;;6.28;95.20
54248;BME280;40161;39.768;2.722;2022-12-29T03:07:20;101879.44;;;6.18;97.64
54248;BME280;40161;39.768;2.722;2022-12-29T03:21:24;101847.47;;;6.32;96.88
54248;BME280;40161;39.768;2.722;2022-12-29T03:24:15;101810.47;;;5.95;96.11
54248;BME280;40161;39.768;2.722;2022-12-29T03:26:43;101842.16;;;6.50;94.64
54248;BME280;40161;39.768;2.722;2022-12-29T03:29:11;101843.09;;;6.45;93.76
54248;BME280;40161;39.768;2.722;2022-12-29T03:31:38;101830.94;;;6.29;94.75
54248;BME280;40161;39.768;2.722;2022-12-29T03:34:05;101839.00;;;6.34;94.85
54248;BME280;40161;39.768;2.722;2022-12-29T03:36:58;101832.34;;;6.26;95.24
54248;BME280;40161;39.768;2.722;2022-12-29T03:39:24;101820.53;;;6.31;96.77
54248;BME280;40161;39.768;2.722;2022-12-29T03:41:57;101815.25;;;6.57;95.25
54248;BME280;40161;39.768;2.722;2022-12-29T03:44:35;101805.69;;;6.37;94.12
54248;BME280;40161;39.768;2.722;2022-12-29T03:47:01;101811.56;;;6.30;94.84
54248;BME280;40161;39.768;2.722;2022-12-29T03:49:27;101770.75;;;6.16;95.02
54248;BME280;40161;39.768;2.722;2022-12-29T03:51:53;101823.28;;;6.31;95.30
54248;BME280;40161;39.768;2.722;2022-12-29T03:54:18;101825.50;;;6.29;95.66
54248;BME280;40161;39.768;2.722;2022-12-29T03:56:44;101821.41;;;6.17;96.59
54248;BME280;40161;39.768;2.722;2022-12-29T03:59:10;101826.34;;;6.15;96.77
54248;BME280;40161;39.768;2.722;2022-12-29T04:01:35;101812.84;;;6.10;97.48
54248;BME280;40161;39.768;2.722;2022-12-29T04:04:01;101801.81;;;6.38;96.82
54248;BME280;40161;39.768;2.722;2022-12-29T04:06:26;101799.78;;;6.75;94.89
54248;BME280;40161;39.768;2.722;2022-12-29T04:08:52;101797.88;;;6.84;93.48
54248;BME280;40161;39.768;2.722;2022-12-29T04:11:17;101781.84;;;6.51;91.68
54248;BME280;40161;39.768;2.722;2022-12-29T04:13:43;101791.28;;;6.45;92.88
54248;BME280;40161;39.768;2.722;2022-12-29T04:16:08;101768.09;;;6.03;94.08
54248;BME280;40161;39.768;2.722;2022-12-29T04:18:34;101781.03;;;5.83;95.82
54248;BME280;40161;39.768;2.722;2022-12-29T04:21:00;101799.75;;;5.99;98.14
54248;BME280;40161;39.768;2.722;2022-12-29T04:23:33;101792.25;;;5.82;97.96
54248;BME280;40161;39.768;2.722;2022-12-29T04:25:59;101791.59;;;5.99;98.89
54248;BME280;40161;39.768;2.722;2022-12-29T04:28:25;101796.38;;;5.93;97.94
54248;BME280;40161;39.768;2.722;2022-12-29T04:30:51;101791.72;;;5.93;97.32
54248;BME280;40161;39.768;2.722;2022-12-29T04:33:16;101746.22;;;6.16;96.51
54248;BME280;40161;39.768;2.722;2022-12-29T04:35:43;101733.13;;;6.05;94.95
54248;BME280;40161;39.768;2.722;2022-12-29T04:38:08;101780.44;;;6.31;94.06
54248;BME280;40161;39.768;2.722;2022-12-29T04:40:34;101765.97;;;6.00;94.82
54248;BME280;40161;39.768;2.722;2022-12-29T04:43:00;101786.22;;;6.07;96.22
54248;BME280;40161;39.768;2.722;2022-12-29T04:45:26;101786.34;;;6.02;96.93
54248;BME280;40161;39.768;2.722;2022-12-29T04:47:51;101796.56;;;5.83;95.89
54248;BME280;40161;39.768;2.722;2022-12-29T04:50:17;101796.03;;;5.94;98.08
54248;BME280;40161;39.768;2.722;2022-12-29T04:52:43;101795.03;;;5.90;97.12
54248;BME280;40161;39.768;2.722;2022-12-29T04:55:08;101788.28;;;5.88;96.87
54248;BME280;40161;39.768;2.722;2022-12-29T04:57:34;101799.09;;;5.93;97.84
54248;BME280;40161;39.768;2.722;2022-12-29T05:00:00;101803.94;;;5.96;97.26
54248;BME280;40161;39.768;2.722;2022-12-29T05:02:25;101809.84;;;5.98;97.54
54248;BME280;40161;39.768;2.722;2022-12-29T05:04:51;101808.59;;;5.82;97.82
54248;BME280;40161;39.768;2.722;2022-12-29T05:07:16;101793.50;;;5.98;96.63
54248;BME280;40161;39.768;2.722;2022-12-29T05:09:42;101763.03;;;6.18;94.70
54248;BME280;40161;39.768;2.722;2022-12-29T05:12:07;101830.09;;;6.20;93.83
54248;BME280;40161;39.768;2.722;2022-12-29T05:14:33;101823.31;;;5.81;97.43
54248;BME280;40161;39.768;2.722;2022-12-29T05:16:59;101812.63;;;5.70;98.06
54248;BME280;40161;39.768;2.722;2022-12-29T05:19:24;101827.72;;;5.90;98.01
54248;BME280;40161;39.768;2.722;2022-12-29T05:21:50;101817.56;;;5.96;97.09
54248;BME280;40161;39.768;2.722;2022-12-29T05:24:15;101817.81;;;6.31;96.15
54248;BME280;40161;39.768;2.722;2022-12-29T05:26:41;101818.94;;;6.30;93.84
54248;BME280;40161;39.768;2.722;2022-12-29T05:29:07;101825.97;;;6.08;95.33
54248;BME280;40161;39.768;2.722;2022-12-29T05:31:32;101816.19;;;6.07;94.59
54248;BME280;40161;39.768;2.722;2022-12-29T05:33:58;101824.59;;;5.97;96.37
54248;BME280;40161;39.768;2.722;2022-12-29T05:36:24;101784.41;;;5.66;97.02
54248;BME280;40161;39.768;2.722;2022-12-29T05:38:50;101833.28;;;5.99;97.56
54248;BME280;40161;39.768;2.722;2022-12-29T05:41:15;101832.06;;;6.28;96.69
54248;BME280;40161;39.768;2.722;2022-12-29T05:43:41;101830.88;;;6.65;93.99
54248;BME280;40161;39.768;2.722;2022-12-29T05:46:06;101823.13;;;6.58;92.97
54248;BME280;40161;39.768;2.722;2022-12-29T05:48:32;101836.16;;;6.61;92.49
54248;BME280;40161;39.768;2.722;2022-12-29T05:50:57;101850.66;;;6.48;93.36
54248;BME280;40161;39.768;2.722;2022-12-29T05:53:23;101827.44;;;6.59;92.82
54248;BME280;40161;39.768;2.722;2022-12-29T05:55:49;101833.50;;;6.79;91.58
54248;BME280;40161;39.768;2.722;2022-12-29T05:58:15;101832.72;;;6.78;90.32
54248;BME280;40161;39.768;2.722;2022-12-29T06:00:41;101836.09;;;6.30;92.34
54248;BME280;40161;39.768;2.722;2022-12-29T06:03:07;101838.28;;;6.20;92.96
54248;BME280;40161;39.768;2.722;2022-12-29T06:05:32;101825.34;;;6.11;95.32
54248;BME280;40161;39.768;2.722;2022-12-29T06:07:58;101839.38;;;6.18;94.15
54248;BME280;40161;39.768;2.722;2022-12-29T06:10:23;101825.06;;;6.35;93.15
54248;BME280;40161;39.768;2.722;2022-12-29T06:12:49;101829.34;;;6.28;92.95
54248;BME280;40161;39.768;2.722;2022-12-29T06:15:14;101826.78;;;6.09;93.65
54248;BME280;40161;39.768;2.722;2022-12-29T06:17:40;101842.66;;;6.07;95.16
54248;BME280;40161;39.768;2.722;2022-12-29T06:20:07;101825.94;;;5.86;96.38
54248;BME280;40161;39.768;2.722;2022-12-29T06:22:33;101828.50;;;5.68;96.62
54248;BME280;40161;39.768;2.722;2022-12-29T06:24:58;101835.69;;;6.01;97.26
54248;BME280;40161;39.768;2.722;2022-12-29T06:27:24;101838.16;;;5.88;96.76
54248;BME280;40161;39.768;2.722;2022-12-29T06:29:50;101806.34;;;5.84;96.73
54248;BME280;40161;39.768;2.722;2022-12-29T06:32:16;101851.91;;;6.20;94.89
54248;BME280;40161;39.768;2.722;2022-12-29T06:34:41;101798.81;;;5.67;95.58
54248;BME280;40161;39.768;2.722;2022-12-29T06:37:07;101824.78;;;6.01;94.25
54248;BME280;40161;39.768;2.722;2022-12-29T06:39:33;101849.84;;;6.25;93.96
54248;BME280;40161;39.768;2.722;2022-12-29T06:41:58;101846.09;;;5.99;95.13
54248;BME280;40161;39.768;2.722;2022-12-29T06:44:24;101856.09;;;6.03;94.75
54248;BME280;40161;39.768;2.722;2022-12-29T06:46:50;101871.25;;;5.96;96.27
54248;BME280;40161;39.768;2.722;2022-12-29T06:49:16;101870.75;;;6.30;95.09
54248;BME280;40161;39.768;2.722;2022-12-29T06:51:41;101861.72;;;6.07;94.87
54248;BME280;40161;39.768;2.722;2022-12-29T06:54:07;101872.75;;;6.47;92.64
54248;BME280;40161;39.768;2.722;2022-12-29T06:56:33;101882.25;;;6.49;93.96
54248;BME280;40161;39.768;2.722;2022-12-29T06:58:58;101881.38;;;6.40;92.47
54248;BME280;40161;39.768;2.722;2022-12-29T07:01:26;101851.34;;;6.31;92.01
54248;BME280;40161;39.768;2.722;2022-12-29T07:03:52;101876.38;;;6.56;92.14
54248;BME280;40161;39.768;2.722;2022-12-29T07:06:17;101895.66;;;6.37;91.53
54248;BME280;40161;39.768;2.722;2022-12-29T07:08:43;101893.25;;;6.22;93.02
54248;BME280;40161;39.768;2.722;2022-12-29T07:11:08;101850.63;;;6.26;93.65
54248;BME280;40161;39.768;2.722;2022-12-29T07:13:34;101898.56;;;6.40;92.82
54248;BME280;40161;39.768;2.722;2022-12-29T07:16:05;101896.41;;;6.51;92.84
54248;BME280;40161;39.768;2.722;2022-12-29T07:18:30;101906.50;;;6.51;92.38
54248;BME280;40161;39.768;2.722;2022-12-29T07:20:56;101890.25;;;6.46;93.38
54248;BME280;40161;39.768;2.722;2022-12-29T07:23:21;101901.53;;;6.53;93.31
54248;BME280;40161;39.768;2.722;2022-12-29T07:25:47;101907.34;;;6.60;92.75
54248;BME280;40161;39.768;2.722;2022-12-29T07:28:12;101902.94;;;6.50;92.52
54248;BME280;40161;39.768;2.722;2022-12-29T07:30:39;101907.41;;;6.46;90.91
54248;BME280;40161;39.768;2.722;2022-12-29T07:33:05;101910.97;;;6.10;93.13
54248;BME280;40161;39.768;2.722;2022-12-29T07:35:30;101894.59;;;6.24;95.16
54248;BME280;40161;39.768;2.722;2022-12-29T07:37:56;101893.06;;;6.18;95.22
54248;BME280;40161;39.768;2.722;2022-12-29T07:40:21;101843.38;;;5.85;95.34
54248;BME280;40161;39.768;2.722;2022-12-29T07:42:47;101892.19;;;6.09;96.04
54248;BME280;40161;39.768;2.722;2022-12-29T07:45:12;101855.38;;;6.34;93.78
54248;BME280;40161;39.768;2.722;2022-12-29T07:47:38;101890.91;;;6.74;92.11
54248;BME280;40161;39.768;2.722;2022-12-29T07:50:04;101895.41;;;6.47;91.92
54248;BME280;40161;39.768;2.722;2022-12-29T07:52:30;101903.25;;;6.26;94.29
54248;BME280;40161;39.768;2.722;2022-12-29T07:54:55;101904.94;;;6.36;95.37
54248;BME280;40161;39.768;2.722;2022-12-29T07:57:21;101906.81;;;6.49;95.72
54248;BME280;40161;39.768;2.722;2022-12-29T07:59:46;101916.97;;;6.80;93.16
54248;BME280;40161;39.768;2.722;2022-12-29T08:02:12;101909.16;;;6.42;93.68
54248;BME280;40161;39.768;2.722;2022-12-29T08:04:37;101908.53;;;6.45;95.46
54248;BME280;40161;39.768;2.722;2022-12-29T08:07:03;101924.47;;;6.74;93.96
54248;BME280;40161;39.768;2.722;2022-12-29T08:09:29;101917.84;;;6.66;93.82
54248;BME280;40161;39.768;2.722;2022-12-29T08:11:54;101922.31;;;6.62;94.13
54248;BME280;40161;39.768;2.722;2022-12-29T08:14:20;101929.59;;;6.31;95.88
54248;BME280;40161;39.768;2.722;2022-12-29T08:16:46;101930.81;;;6.25;96.36
54248;BME280;40161;39.768;2.722;2022-12-29T08:19:12;101921.78;;;6.38;96.64
54248;BME280;40161;39.768;2.722;2022-12-29T08:21:38;101934.91;;;6.72;94.34
54248;BME280;40161;39.768;2.722;2022-12-29T08:24:04;101937.56;;;6.41;94.68
54248;BME280;40161;39.768;2.722;2022-12-29T08:26:29;101935.63;;;6.64;95.69
54248;BME280;40161;39.768;2.722;2022-12-29T08:28:55;101949.66;;;6.71;94.53
54248;BME280;40161;39.768;2.722;2022-12-29T08:31:22;101941.84;;;6.56;96.01
54248;BME280;40161;39.768;2.722;2022-12-29T08:33:48;101950.34;;;6.54;96.52
54248;BME280;40161;39.768;2.722;2022-12-29T08:36:13;101935.19;;;6.71;95.76
54248;BME280;40161;39.768;2.722;2022-12-29T08:38:39;101943.38;;;6.93;94.42
54248;BME280;40161;39.768;2.722;2022-12-29T08:41:05;101928.44;;;6.68;94.22
54248;BME280;40161;39.768;2.722;2022-12-29T08:43:30;101952.13;;;7.04;95.11
54248;BME280;40161;39.768;2.722;2022-12-29T08:45:57;101960.63;;;7.02;94.03
54248;BME280;40161;39.768;2.722;2022-12-29T08:48:23;101969.19;;;7.09;94.56
54248;BME280;40161;39.768;2.722;2022-12-29T08:50:49;101967.75;;;6.89;95.25
54248;BME280;40161;39.768;2.722;2022-12-29T08:53:15;101964.53;;;6.87;96.47
54248;BME280;40161;39.768;2.722;2022-12-29T08:55:40;101977.03;;;7.33;93.59
54248;BME280;40161;39.768;2.722;2022-12-29T08:58:06;101969.13;;;7.32;94.38
54248;BME280;40161;39.768;2.722;2022-12-29T09:00:31;101956.34;;;7.41;94.06
54248;BME280;40161;39.768;2.722;2022-12-29T09:02:57;101974.81;;;7.44;92.86
54248;BME280;40161;39.768;2.722;2022-12-29T09:05:24;101968.28;;;7.23;94.14
54248;BME280;40161;39.768;2.722;2022-12-29T09:07:49;101966.56;;;7.04;95.76
54248;BME280;40161;39.768;2.722;2022-12-29T09:10:15;101992.63;;;7.10;96.66
54248;BME280;40161;39.768;2.722;2022-12-29T09:12:40;101952.81;;;6.87;97.49
54248;BME280;40161;39.768;2.722;2022-12-29T09:15:06;101999.13;;;7.23;97.58
54248;BME280;40161;39.768;2.722;2022-12-29T09:17:33;102014.31;;;7.38;96.05
54248;BME280;40161;39.768;2.722;2022-12-29T09:20:21;102003.53;;;7.33;97.40
54248;BME280;40161;39.768;2.722;2022-12-29T09:22:47;102002.16;;;7.53;96.60
54248;BME280;40161;39.768;2.722;2022-12-29T09:25:13;102012.13;;;7.49;96.12
54248;BME280;40161;39.768;2.722;2022-12-29T09:27:39;102003.19;;;7.66;96.70
54248;BME280;40161;39.768;2.722;2022-12-29T09:30:07;102000.78;;;7.64;95.94
54248;BME280;40161;39.768;2.722;2022-12-29T09:32:34;102002.56;;;7.69;96.97
54248;BME280;40161;39.768;2.722;2022-12-29T09:35:00;101996.69;;;7.53;99.38
54248;BME280;40161;39.768;2.722;2022-12-29T09:37:26;101991.06;;;7.89;97.94
54248;BME280;40161;39.768;2.722;2022-12-29T09:39:52;101976.66;;;8.15;96.97
54248;BME280;40161;39.768;2.722;2022-12-29T09:45:43;101991.88;;;8.47;96.55
54248;BME280;40161;39.768;2.722;2022-12-29T09:48:16;101953.56;;;8.55;97.26
54248;BME280;40161;39.768;2.722;2022-12-29T09:50:48;101978.16;;;8.99;96.81
54248;BME280;40161;39.768;2.722;2022-12-29T09:55:49;101985.78;;;9.40;95.85
54248;BME280;40161;39.768;2.722;2022-12-29T10:00:56;101987.03;;;9.90;95.62
54248;BME280;40161;39.768;2.722;2022-12-29T10:03:32;101986.63;;;10.09;94.16
54248;BME280;40161;39.768;2.722;2022-12-29T10:08:41;101990.84;;;10.57;93.50
54248;BME280;40161;39.768;2.722;2022-12-29T10:14:17;101997.13;;;11.11;89.17
54248;BME280;40161;39.768;2.722;2022-12-29T10:19:53;101995.06;;;11.54;86.94
54248;BME280;40161;39.768;2.722;2022-12-29T10:24:47;101987.97;;;11.77;85.62
54248;BME280;40161;39.768;2.722;2022-12-29T10:27:14;101987.78;;;11.95;86.32
54248;BME280;40161;39.768;2.722;2022-12-29T10:29:50;101934.78;;;11.73;85.77
54248;BME280;40161;39.768;2.722;2022-12-29T10:32:40;101992.66;;;12.14;84.09
54248;BME280;40161;39.768;2.722;2022-12-29T10:43:26;101953.75;;;12.40;84.98
54248;BME280;40161;39.768;2.722;2022-12-29T10:45:56;101968.81;;;12.58;86.41
54248;BME280;40161;39.768;2.722;2022-12-29T10:48:27;101937.88;;;12.49;86.03
54248;BME280;40161;39.768;2.722;2022-12-29T10:50:56;101944.94;;;12.62;85.65
54248;BME280;40161;39.768;2.722;2022-12-29T10:53:27;101964.03;;;12.83;84.24
54248;BME280;40161;39.768;2.722;2022-12-29T10:55:55;101961.88;;;13.04;84.58
54248;BME280;40161;39.768;2.722;2022-12-29T10:58:21;101951.72;;;13.09;83.26
54248;BME280;40161;39.768;2.722;2022-12-29T11:00:51;101955.94;;;13.18;82.32
54248;BME280;40161;39.768;2.722;2022-12-29T11:08:55;101940.38;;;13.42;79.84
54248;BME280;40161;39.768;2.722;2022-12-29T11:11:28;101889.06;;;13.53;76.00
54248;BME280;40161;39.768;2.722;2022-12-29T11:14:02;101934.28;;;13.99;74.48
54248;BME280;40161;39.768;2.722;2022-12-29T11:16:34;101925.97;;;14.15;69.72
54248;BME280;40161;39.768;2.722;2022-12-29T11:19:00;101887.38;;;14.19;68.08
54248;BME280;40161;39.768;2.722;2022-12-29T11:21:37;101926.47;;;14.79;66.48
54248;BME280;40161;39.768;2.722;2022-12-29T11:24:26;101920.88;;;15.18;57.51
54248;BME280;40161;39.768;2.722;2022-12-29T11:27:13;101910.63;;;15.18;59.69
54248;BME280;40161;39.768;2.722;2022-12-29T11:29:41;101903.41;;;15.37;59.63
54248;BME280;40161;39.768;2.722;2022-12-29T11:32:27;101902.22;;;15.38;62.01
54248;BME280;40161;39.768;2.722;2022-12-29T11:34:56;101871.88;;;15.41;62.71
54248;BME280;40161;39.768;2.722;2022-12-29T11:37:28;101892.13;;;15.72;61.59
54248;BME280;40161;39.768;2.722;2022-12-29T11:40:10;101869.72;;;15.81;61.02
54248;BME280;40161;39.768;2.722;2022-12-29T11:45:32;101873.81;;;15.90;58.53
54248;BME280;40161;39.768;2.722;2022-12-29T11:48:05;101870.56;;;15.85;59.37
54248;BME280;40161;39.768;2.722;2022-12-29T11:50:33;101827.56;;;15.64;56.17
54248;BME280;40161;39.768;2.722;2022-12-29T11:53:03;101858.78;;;15.92;53.64
54248;BME280;40161;39.768;2.722;2022-12-29T11:55:31;101854.09;;;15.96;52.31
54248;BME280;40161;39.768;2.722;2022-12-29T11:57:59;101804.34;;;15.69;47.76
54248;BME280;40161;39.768;2.722;2022-12-29T12:00:27;101850.31;;;16.07;47.62
54248;BME280;40161;39.768;2.722;2022-12-29T12:03:03;101851.91;;;16.08;47.08
54248;BME280;40161;39.768;2.722;2022-12-29T12:05:48;101819.38;;;16.02;47.30
54248;BME280;40161;39.768;2.722;2022-12-29T12:11:15;101802.34;;;16.00;49.62
54248;BME280;40161;39.768;2.722;2022-12-29T12:16:26;101840.03;;;16.08;49.63
54248;BME280;40161;39.768;2.722;2022-12-29T12:18:57;101791.03;;;15.82;51.72
54248;BME280;40161;39.768;2.722;2022-12-29T12:21:32;101800.16;;;15.82;53.59
54248;BME280;40161;39.768;2.722;2022-12-29T12:26:38;101806.53;;;16.20;52.35
54248;BME280;40161;39.768;2.722;2022-12-29T12:29:14;101807.19;;;16.10;53.14
54248;BME280;40161;39.768;2.722;2022-12-29T12:32:01;101780.28;;;16.44;43.35
54248;BME280;40161;39.768;2.722;2022-12-29T12:34:33;101756.28;;;16.18;46.74
54248;BME280;40161;39.768;2.722;2022-12-29T12:40:27;101768.84;;;16.08;50.82
54248;BME280;40161;39.768;2.722;2022-12-29T12:59:57;101765.47;;;16.26;52.16
54248;BME280;40161;39.768;2.722;2022-12-29T13:08:03;101746.09;;;16.29;52.77
54248;BME280;40161;39.768;2.722;2022-12-29T13:10:54;101746.13;;;16.33;51.69
54248;BME280;40161;39.768;2.722;2022-12-29T13:13:51;101744.53;;;16.28;51.61
54248;BME280;40161;39.768;2.722;2022-12-29T13:19:49;101709.16;;;16.55;51.56
54248;BME280;40161;39.768;2.722;2022-12-29T13:22:27;101724.56;;;16.53;52.12
54248;BME280;40161;39.768;2.722;2022-12-29T13:27:29;101716.25;;;16.53;49.33
54248;BME280;40161;39.768;2.722;2022-12-29T13:30:14;101736.44;;;16.53;49.27
54248;BME280;40161;39.768;2.722;2022-12-29T13:32:55;101732.19;;;16.67;49.31
54248;BME280;40161;39.768;2.722;2022-12-29T13:41:01;101702.91;;;16.66;52.28
54248;BME280;40161;39.768;2.722;2022-12-29T13:43:31;101735.53;;;16.83;49.16
54248;BME280;40161;39.768;2.722;2022-12-29T13:46:04;101697.59;;;16.46;49.94
54248;BME280;40161;39.768;2.722;2022-12-29T13:48:55;101732.53;;;16.61;49.24
54248;BME280;40161;39.768;2.722;2022-12-29T13:51:23;101729.72;;;16.54;49.02
54248;BME280;40161;39.768;2.722;2022-12-29T13:57:44;101711.69;;;16.75;47.62
54248;BME280;40161;39.768;2.722;2022-12-29T14:00:04;101714.88;;;16.77;47.49
54248;BME280;40161;39.768;2.722;2022-12-29T14:08:03;101713.31;;;16.76;47.57
54248;BME280;40161;39.768;2.722;2022-12-29T14:15:32;101700.63;;;16.78;46.48
54248;BME280;40161;39.768;2.722;2022-12-29T14:18:09;101693.44;;;16.74;47.27
54248;BME280;40161;39.768;2.722;2022-12-29T14:20:36;101704.63;;;16.81;46.51
54248;BME280;40161;39.768;2.722;2022-12-29T14:28:29;101683.56;;;16.73;45.71
54248;BME280;40161;39.768;2.722;2022-12-29T14:30:57;101704.66;;;16.88;45.97
54248;BME280;40161;39.768;2.722;2022-12-29T14:33:24;101721.22;;;16.77;47.17
54248;BME280;40161;39.768;2.722;2022-12-29T14:35:54;101697.66;;;16.53;47.95
54248;BME280;40161;39.768;2.722;2022-12-29T14:38:22;101714.63;;;16.48;47.81
54248;BME280;40161;39.768;2.722;2022-12-29T14:40:49;101705.16;;;16.53;47.67
54248;BME280;40161;39.768;2.722;2022-12-29T14:43:21;101702.09;;;16.69;47.00
54248;BME280;40161;39.768;2.722;2022-12-29T14:46:02;101661.00;;;16.26;48.75
54248;BME280;40161;39.768;2.722;2022-12-29T14:48:40;101709.47;;;16.47;48.89
54248;BME280;40161;39.768;2.722;2022-12-29T14:51:38;101712.31;;;16.57;46.68
54248;BME280;40161;39.768;2.722;2022-12-29T14:57:08;101725.81;;;16.59;51.40
54248;BME280;40161;39.768;2.722;2022-12-29T14:59:34;101715.75;;;16.44;51.66
54248;BME280;40161;39.768;2.722;2022-12-29T15:02:17;101681.50;;;16.18;52.64
54248;BME280;40161;39.768;2.722;2022-12-29T15:04:46;101747.03;;;16.44;53.67
54248;BME280;40161;39.768;2.722;2022-12-29T15:07:12;101738.59;;;16.30;52.40
54248;BME280;40161;39.768;2.722;2022-12-29T15:09:54;101734.06;;;16.11;53.17
54248;BME280;40161;39.768;2.722;2022-12-29T15:12:38;101746.47;;;16.24;50.75
54248;BME280;40161;39.768;2.722;2022-12-29T15:15:23;101758.81;;;16.34;48.35
54248;BME280;40161;39.768;2.722;2022-12-29T15:17:49;101762.72;;;16.29;47.26
54248;BME280;40161;39.768;2.722;2022-12-29T15:20:28;101776.84;;;16.21;48.39
54248;BME280;40161;39.768;2.722;2022-12-29T15:23:02;101762.22;;;16.20;47.37
54248;BME280;40161;39.768;2.722;2022-12-29T15:25:29;101775.28;;;16.20;47.90
54248;BME280;40161;39.768;2.722;2022-12-29T15:28:01;101768.41;;;16.06;48.80
54248;BME280;40161;39.768;2.722;2022-12-29T15:30:27;101782.03;;;16.22;47.84